createdAt,value
2023-03-06T00:00:50.040Z,4.70
2023-03-06T00:05:51.497Z,4.85
2023-03-06T00:10:53.596Z,4.82
2023-03-06T00:15:58.839Z,5.10
2023-03-06T00:21:00.412Z,5.43
2023-03-06T00:26:02.076Z,6.30
2023-03-06T00:31:04.150Z,5.03
2023-03-06T00:36:06.327Z,4.90
2023-03-06T00:41:10.515Z,4.60
2023-03-06T00:46:12.044Z,5.25
2023-03-06T00:51:14.116Z,5.57
2023-03-06T00:56:15.660Z,5.28
2023-03-06T01:01:17.276Z,5.80
2023-03-06T01:06:18.825Z,5.50
2023-03-06T01:11:20.472Z,5.20
2023-03-06T01:16:22.259Z,5.70
2023-03-06T01:21:23.712Z,5.72
2023-03-06T01:26:25.230Z,6.10
2023-03-06T01:31:26.844Z,6.90
2023-03-06T01:36:28.487Z,6.13
2023-03-06T01:41:30.234Z,6.82
2023-03-06T01:46:41.805Z,8.02
2023-03-06T01:52:07.363Z,8.10
2023-03-06T01:57:14.805Z,6.50
2023-03-06T02:02:16.448Z,5.88
2023-03-06T02:07:20.273Z,5.82
2023-03-06T02:12:22.115Z,6.57
2023-03-06T02:17:24.297Z,6.95
2023-03-06T02:22:36.083Z,7.13
2023-03-06T02:27:37.718Z,6.82
2023-03-06T02:32:39.177Z,7.60
2023-03-06T02:37:40.953Z,7.75
2023-03-06T02:42:50.666Z,7.53
2023-03-06T02:47:52.100Z,8.07
2023-03-06T02:52:53.568Z,6.95
2023-03-06T02:57:55.028Z,6.97
2023-03-06T03:02:56.711Z,7.45
2023-03-06T03:07:58.621Z,7.82
2023-03-06T03:13:00.110Z,8.23
2023-03-06T03:18:01.591Z,9.00
2023-03-06T03:23:03.712Z,8.40
2023-03-06T03:28:05.169Z,7.22
2023-03-06T03:33:07.075Z,8.90
2023-03-06T03:38:08.595Z,8.30
2023-03-06T03:43:10.052Z,7.28
2023-03-06T03:48:11.974Z,11.35
2023-03-06T03:53:13.721Z,8.70
2023-03-06T03:58:15.701Z,8.32
2023-03-06T04:03:17.310Z,10.25
2023-03-06T04:08:18.707Z,7.72
2023-03-06T04:13:22.255Z,11.57
2023-03-06T04:18:24.013Z,10.73
2023-03-06T04:23:26.343Z,11.50
2023-03-06T04:28:27.799Z,13.02
2023-03-06T04:33:29.302Z,12.60
2023-03-06T04:38:30.945Z,12.18
2023-03-06T04:43:32.469Z,12.77
2023-03-06T04:48:36.623Z,17.10
2023-03-06T04:53:38.149Z,15.13
2023-03-06T04:58:39.631Z,13.32
2023-03-06T05:03:41.095Z,10.60
2023-03-06T05:08:42.550Z,9.88
2023-03-06T05:13:44.123Z,9.48
2023-03-06T05:18:45.630Z,9.52
2023-03-06T05:23:47.570Z,10.52
2023-03-06T05:28:49.049Z,7.85
2023-03-06T05:33:50.457Z,7.97
2023-03-06T05:38:52.011Z,7.60
2023-03-06T05:43:53.677Z,6.93
2023-03-06T05:48:56.198Z,6.60
2023-03-06T05:53:57.953Z,7.38
2023-03-06T05:58:59.387Z,7.15
2023-03-06T06:04:00.831Z,7.00
2023-03-06T06:09:02.228Z,7.30
2023-03-06T06:14:03.661Z,7.78
2023-03-06T06:19:05.115Z,7.47
2023-03-06T06:24:06.773Z,6.60
2023-03-06T06:29:08.561Z,6.45
2023-03-06T06:34:11.009Z,6.60
2023-03-06T06:39:16.138Z,5.93
2023-03-06T06:44:18.466Z,5.97
2023-03-06T06:49:19.955Z,5.82
2023-03-06T06:54:22.323Z,5.50
2023-03-06T06:59:23.994Z,5.50
2023-03-06T07:04:25.454Z,6.97
2023-03-06T07:09:26.955Z,8.13
2023-03-06T07:14:28.405Z,9.73
2023-03-06T07:19:29.851Z,10.25
2023-03-06T07:24:31.331Z,9.95
2023-03-06T07:29:34.438Z,10.85
2023-03-06T07:34:35.918Z,10.82
2023-03-06T07:39:37.361Z,10.48
2023-03-06T07:44:38.891Z,13.68
2023-03-06T07:49:40.316Z,10.52
2023-03-06T07:54:42.043Z,11.85
2023-03-06T07:59:43.517Z,10.98
2023-03-06T08:04:44.999Z,13.15
2023-03-06T08:09:46.438Z,12.63
2023-03-06T08:14:47.917Z,10.85
2023-03-06T08:19:49.367Z,12.88
2023-03-06T08:24:55.003Z,12.13
2023-03-06T08:29:56.482Z,15.98
2023-03-06T08:34:57.969Z,12.77
2023-03-06T08:39:59.527Z,12.18
2023-03-06T08:45:01.004Z,10.60
2023-03-06T08:50:02.515Z,13.18
2023-03-06T08:55:04.193Z,12.63
2023-03-06T09:00:09.063Z,12.73
2023-03-06T09:05:11.076Z,12.63
2023-03-06T09:10:17.841Z,12.38
2023-03-06T09:15:21.114Z,13.45
2023-03-06T09:20:22.801Z,12.95
2023-03-06T09:25:25.082Z,10.10
2023-03-06T09:30:26.548Z,9.27
2023-03-06T09:35:28.077Z,10.05
2023-03-06T09:40:55.741Z,9.90
2023-03-06T09:45:59.912Z,9.55
2023-03-06T09:51:10.662Z,10.02
2023-03-06T09:56:20.342Z,9.80
2023-03-06T10:01:29.549Z,9.68
2023-03-06T10:06:36.817Z,9.48
2023-03-06T10:11:46.847Z,9.35
2023-03-06T10:16:48.529Z,8.60
2023-03-06T10:21:58.508Z,9.20
2023-03-06T10:27:12.703Z,8.48
2023-03-06T10:32:34.277Z,8.77
2023-03-06T10:37:41.124Z,9.38
2023-03-06T10:42:42.626Z,8.73
2023-03-06T10:47:44.187Z,8.80
2023-03-06T10:52:57.865Z,9.10
2023-03-06T10:58:18.376Z,8.90
2023-03-06T11:03:24.481Z,8.10
2023-03-06T11:08:26.029Z,9.85
2023-03-06T11:13:30.617Z,8.45
2023-03-06T11:18:38.440Z,8.98
2023-03-06T11:23:47.206Z,8.80
2023-03-06T11:29:08.933Z,8.52
2023-03-06T11:34:51.673Z,7.47
2023-03-06T11:40:02.826Z,8.77
2023-03-06T11:45:04.399Z,8.02
2023-03-06T11:50:24.723Z,8.95
2023-03-06T11:55:44.183Z,8.70
2023-03-06T12:01:14.620Z,9.20
2023-03-06T12:06:45.826Z,9.15
2023-03-06T12:12:20.859Z,9.73
2023-03-06T12:17:28.248Z,8.07
2023-03-06T12:22:53.384Z,9.30
2023-03-06T12:28:23.122Z,7.43
2023-03-06T12:33:30.538Z,8.48
2023-03-06T12:39:01.206Z,7.80
2023-03-06T12:44:05.631Z,7.80
2023-03-06T12:49:31.492Z,8.57
2023-03-06T12:54:38.635Z,8.00
2023-03-06T12:59:48.583Z,7.95
2023-03-06T13:05:28.688Z,8.27
2023-03-06T13:10:35.852Z,8.52
2023-03-06T13:15:39.048Z,9.07
2023-03-06T13:20:42.903Z,7.97
2023-03-06T13:25:50.363Z,8.13
2023-03-06T13:30:53.277Z,8.57
2023-03-06T13:35:56.890Z,7.35
2023-03-06T13:41:23.011Z,6.93
2023-03-06T13:46:35.060Z,6.68
2023-03-06T13:52:10.516Z,8.75
2023-03-06T13:57:21.290Z,8.68
2023-03-06T14:02:54.764Z,9.50
2023-03-06T14:08:07.508Z,10.50
2023-03-06T14:13:23.319Z,12.10
2023-03-06T14:18:47.746Z,10.90
2023-03-06T14:24:00.421Z,10.05
2023-03-06T14:29:03.123Z,10.25
2023-03-06T14:34:15.924Z,10.68
2023-03-06T14:39:43.962Z,12.30
2023-03-06T14:44:47.284Z,11.43
2023-03-06T14:50:43.818Z,10.38
2023-03-06T14:55:53.166Z,9.77
2023-03-06T15:05:58.048Z,10.45
2023-03-06T15:11:06.092Z,10.45
2023-03-06T15:16:13.433Z,10.93
2023-03-06T15:21:18.744Z,10.55
2023-03-06T15:26:29.539Z,10.93
2023-03-06T15:31:33.026Z,11.10
2023-03-06T15:36:43.060Z,11.65
2023-03-06T15:41:44.957Z,11.65
2023-03-06T15:46:47.293Z,11.23
2023-03-06T15:51:49.940Z,10.38
2023-03-06T15:56:52.148Z,11.90
2023-03-06T16:01:54.202Z,11.52
2023-03-06T16:06:55.673Z,11.45
2023-03-06T16:11:57.265Z,13.20
2023-03-06T16:16:59.572Z,11.20
2023-03-06T16:22:01.030Z,11.52
2023-03-06T16:27:02.860Z,11.60
2023-03-06T16:32:05.433Z,11.40
2023-03-06T16:37:11.375Z,11.85
2023-03-06T16:42:12.935Z,13.85
2023-03-06T16:47:14.426Z,12.52
2023-03-06T16:52:16.272Z,14.25
2023-03-06T16:57:17.700Z,13.93
2023-03-06T17:02:19.170Z,26.35
2023-03-06T17:07:20.593Z,16.05
2023-03-06T17:12:21.998Z,15.48
2023-03-06T17:17:23.460Z,18.60
2023-03-06T17:22:25.444Z,23.10
2023-03-06T17:27:26.895Z,18.02
2023-03-06T17:32:28.830Z,12.15
2023-03-06T17:37:31.955Z,15.43
2023-03-06T17:42:35.280Z,15.38
2023-03-06T17:47:36.856Z,15.63
2023-03-06T17:52:38.974Z,13.90
2023-03-06T17:57:40.414Z,14.55
2023-03-06T18:02:41.900Z,14.65
2023-03-06T18:07:43.894Z,15.60
2023-03-06T18:12:45.466Z,18.05
2023-03-06T18:17:46.999Z,17.60
2023-03-06T18:22:48.448Z,17.58
2023-03-06T18:27:49.865Z,17.77
2023-03-06T18:32:51.322Z,19.55
2023-03-06T18:37:52.791Z,18.85
2023-03-06T18:42:54.765Z,17.63
2023-03-06T18:47:56.264Z,18.17
2023-03-06T18:52:57.747Z,19.98
2023-03-06T18:57:59.252Z,20.17
2023-03-06T19:03:00.681Z,16.85
2023-03-06T19:08:02.101Z,17.17
2023-03-06T19:13:04.628Z,16.88
2023-03-06T19:18:06.054Z,16.85
2023-03-06T19:23:08.007Z,16.02
2023-03-06T19:28:09.459Z,15.38
2023-03-06T19:33:10.869Z,14.38
2023-03-06T19:38:12.504Z,15.30
2023-03-06T19:43:13.931Z,16.15
2023-03-06T19:48:16.147Z,15.95
2023-03-06T19:53:17.684Z,16.35
2023-03-06T19:58:19.114Z,16.67
2023-03-06T20:03:20.568Z,17.70
2023-03-06T20:08:21.980Z,19.10
2023-03-06T20:13:23.650Z,18.30
2023-03-06T20:18:25.146Z,18.55
2023-03-06T20:23:27.524Z,20.25
2023-03-06T20:28:29.013Z,19.52
2023-03-06T20:33:30.427Z,18.17
2023-03-06T20:38:31.904Z,18.13
2023-03-06T20:43:33.311Z,17.88
2023-03-06T20:48:34.948Z,19.15
2023-03-06T20:53:36.628Z,18.73
2023-03-06T20:58:38.085Z,16.85
2023-03-06T21:03:39.531Z,16.00
2023-03-06T21:08:41.102Z,16.83
2023-03-06T21:13:42.898Z,16.92
2023-03-06T21:18:45.299Z,16.17
2023-03-06T21:23:48.018Z,16.40
2023-03-06T21:28:49.847Z,16.38
2023-03-06T21:33:51.747Z,15.70
2023-03-06T21:38:54.214Z,16.70
2023-03-06T21:43:57.284Z,17.08
2023-03-06T21:48:59.142Z,15.73
2023-03-06T21:54:02.013Z,16.20
2023-03-06T21:59:03.454Z,16.63
2023-03-06T22:04:04.891Z,16.45
2023-03-06T22:09:06.707Z,17.52
2023-03-06T22:14:08.266Z,16.77
2023-03-06T22:19:09.719Z,17.30
2023-03-06T22:24:11.149Z,16.35
2023-03-06T22:29:12.571Z,16.42
2023-03-06T22:34:13.990Z,19.58
2023-03-06T22:39:15.412Z,17.10
2023-03-06T22:44:19.183Z,17.67
2023-03-06T22:49:20.694Z,16.95
2023-03-06T22:54:22.232Z,18.35
2023-03-06T22:59:23.698Z,19.33
2023-03-06T23:04:25.159Z,19.55
2023-03-06T23:09:26.882Z,18.83
2023-03-06T23:14:28.383Z,20.83
2023-03-06T23:19:29.863Z,19.30
2023-03-06T23:24:34.819Z,18.38
2023-03-06T23:29:37.650Z,21.23
2023-03-06T23:34:39.124Z,19.45
2023-03-06T23:39:40.550Z,19.52
2023-03-06T23:44:42.012Z,20.10
2023-03-06T23:49:43.599Z,21.70
2023-03-06T23:54:45.041Z,21.85
2023-03-06T23:59:46.577Z,21.02
